Time;durP1;ratioP1;P1;durP2;ratioP2;P2;SDS_P1;SDS_P2;PMS_P1;PMS_P2;Temp;Humidity;BMP_temperature;BMP_pressure;BME280_temperature;BME280_humidity;BME280_pressure;Samples;Min_cycle;Max_cycle;Signal;HPM_P1;HPM_P2
2022/08/07 00:02:39;;;;;;;16.07;10.00;;;15.00;99.90;;;;;;5028803;28;20662;-81
2022/08/07 00:05:25;;;;;;;11.40;9.63;;;15.00;99.90;;;;;;5032584;28;20246;-81
2022/08/07 00:08:09;;;;;;;11.63;8.83;;;14.90;99.90;;;;;;5027628;28;20729;-80
2022/08/07 00:10:53;;;;;;;13.23;9.83;;;14.80;99.90;;;;;;5024961;28;20231;-80
2022/08/07 00:13:39;;;;;;;15.33;10.53;;;14.80;99.90;;;;;;5025136;28;20563;-79
2022/08/07 00:16:26;;;;;;;11.00;9.43;;;14.80;99.90;;;;;;5025941;28;20191;-80
2022/08/07 00:19:10;;;;;;;12.00;9.57;;;14.70;99.90;;;;;;5030475;28;20183;-80
2022/08/07 00:21:54;;;;;;;12.87;10.60;;;14.60;99.90;;;;;;5029813;28;20187;-80
2022/08/07 00:24:39;;;;;;;12.93;9.73;;;14.60;99.90;;;;;;5029375;28;20202;-79
2022/08/07 00:27:23;;;;;;;10.77;9.27;;;14.60;99.90;;;;;;5027776;28;20227;-80
2022/08/07 00:30:08;;;;;;;13.30;9.80;;;14.60;99.90;;;;;;5029322;28;20240;-79
2022/08/07 00:32:52;;;;;;;14.37;10.10;;;14.50;99.90;;;;;;5027127;28;20280;-81
2022/08/07 00:35:36;;;;;;;13.13;9.60;;;14.50;99.90;;;;;;5032275;28;20183;-80
2022/08/07 00:38:22;;;;;;;14.43;10.83;;;14.50;99.90;;;;;;5031141;28;20234;-81
2022/08/07 00:41:06;;;;;;;14.37;10.23;;;14.40;99.90;;;;;;5027671;28;20262;-81
2022/08/07 00:43:51;;;;;;;14.17;10.77;;;14.40;99.90;;;;;;5028230;28;20259;-80
2022/08/07 00:46:35;;;;;;;14.50;10.23;;;14.30;99.90;;;;;;5027039;28;20239;-80
2022/08/07 00:49:19;;;;;;;11.87;10.03;;;14.20;99.90;;;;;;5033926;28;20215;-81
2022/08/07 00:52:08;;;;;;;13.03;9.90;;;14.20;99.90;;;;;;5030093;28;20275;-81
2022/08/07 00:54:52;;;;;;;12.97;10.57;;;14.10;99.90;;;;;;5032168;28;20726;-81
2022/08/07 00:57:37;;;;;;;12.97;10.47;;;14.00;99.90;;;;;;5031535;28;20188;-81
2022/08/07 01:00:22;;;;;;;15.40;10.57;;;14.00;99.90;;;;;;5030825;28;20207;-81
2022/08/07 01:03:06;;;;;;;13.80;10.00;;;13.90;99.90;;;;;;5031863;28;20287;-80
2022/08/07 01:05:54;;;;;;;13.43;10.13;;;13.90;99.90;;;;;;5031653;28;20207;-81
2022/08/07 01:08:39;;;;;;;13.83;10.00;;;13.90;99.90;;;;;;5032483;28;20405;-81
2022/08/07 01:11:24;;;;;;;10.97;9.50;;;13.90;99.90;;;;;;5029277;28;20206;-81
2022/08/07 01:14:09;;;;;;;11.33;9.43;;;13.80;99.90;;;;;;5035702;28;20740;-80
2022/08/07 01:16:53;;;;;;;12.30;9.27;;;13.80;99.90;;;;;;5035610;28;20199;-81
2022/08/07 01:19:38;;;;;;;12.27;9.83;;;13.70;99.90;;;;;;5031982;28;20230;-81
2022/08/07 01:22:24;;;;;;;14.67;10.47;;;13.70;99.90;;;;;;5032943;28;20255;-80
2022/08/07 01:25:10;;;;;;;13.37;10.70;;;13.70;99.90;;;;;;5035963;28;20199;-81
2022/08/07 01:27:55;;;;;;;10.47;8.83;;;13.60;99.90;;;;;;5030438;28;20195;-80
2022/08/07 01:30:40;;;;;;;15.03;9.13;;;13.60;99.90;;;;;;5028786;28;20239;-81
2022/08/07 01:33:25;;;;;;;10.13;9.03;;;13.60;99.90;;;;;;5025707;28;20207;-81
2022/08/07 01:36:10;;;;;;;15.60;10.27;;;13.60;99.90;;;;;;5032947;28;20199;-80
2022/08/07 01:38:55;;;;;;;13.30;10.30;;;13.50;99.90;;;;;;5031558;28;20248;-80
2022/08/07 01:41:42;;;;;;;13.20;9.37;;;13.50;99.90;;;;;;5035077;28;20554;-80
2022/08/07 01:44:26;;;;;;;15.53;9.47;;;13.50;99.90;;;;;;5034186;28;20196;-79
2022/08/07 01:47:11;;;;;;;10.13;8.80;;;13.50;99.90;;;;;;5035395;28;20283;-81
2022/08/07 01:49:55;;;;;;;13.37;9.43;;;13.40;99.90;;;;;;5030187;28;20262;-81
2022/08/07 01:52:39;;;;;;;12.93;9.67;;;13.30;99.90;;;;;;5033299;28;20222;-80
2022/08/07 01:55:32;;;;;;;12.30;9.50;;;13.30;99.90;;;;;;5034248;28;20179;-80
2022/08/07 01:58:20;;;;;;;12.97;9.93;;;13.20;99.90;;;;;;5029382;28;20323;-82
2022/08/07 02:01:17;;;;;;;14.45;12.07;;;13.20;99.90;;;;;;5033554;28;20394;-81
2022/08/07 02:04:22;;;;;;;14.52;12.23;;;13.20;99.90;;;;;;5033920;28;20471;-81
2022/08/07 02:07:10;;;;;;;15.45;12.15;;;13.20;99.90;;;;;;5026775;28;20502;-82
2022/08/07 02:09:57;;;;;;;13.23;11.88;;;13.10;99.90;;;;;;5033109;28;20475;-82
2022/08/07 02:12:44;;;;;;;13.02;11.68;;;13.10;99.90;;;;;;5033332;28;20406;-81
2022/08/07 02:15:30;;;;;;;12.93;11.57;;;13.10;99.90;;;;;;5032323;28;20425;-80
2022/08/07 02:18:16;;;;;;;13.82;11.60;;;13.10;99.90;;;;;;5030537;28;21010;-81
2022/08/07 02:21:02;;;;;;;13.70;11.07;;;13.20;99.90;;;;;;5044195;28;20410;-80
2022/08/07 02:23:48;;;;;;;13.07;11.68;;;13.20;99.90;;;;;;5031959;28;20449;-81
2022/08/07 02:26:38;;;;;;;13.10;11.70;;;13.20;99.90;;;;;;5028317;28;20445;-81
2022/08/07 02:29:23;;;;;;;14.52;12.23;;;13.20;99.90;;;;;;5034023;28;20422;-81
2022/08/07 02:32:09;;;;;;;12.87;11.57;;;13.10;99.90;;;;;;5032259;28;20442;-81
2022/08/07 02:34:56;;;;;;;14.73;12.70;;;13.10;99.90;;;;;;5034179;28;20414;-81
2022/08/07 02:37:41;;;;;;;13.90;11.88;;;13.10;99.90;;;;;;5030052;28;20414;-81
2022/08/07 02:40:27;;;;;;;12.87;11.60;;;13.10;99.90;;;;;;5028631;28;20394;-80
2022/08/07 02:43:12;;;;;;;14.50;12.25;;;13.10;99.90;;;;;;5032314;28;20537;-81
2022/08/07 02:45:58;;;;;;;13.80;12.30;;;13.00;99.90;;;;;;5029978;28;20401;-81
2022/08/07 02:48:43;;;;;;;13.43;12.07;;;13.00;99.90;;;;;;5034279;28;20453;-80
2022/08/07 02:51:31;;;;;;;13.88;12.07;;;13.00;99.90;;;;;;5033554;28;20406;-81
2022/08/07 02:54:18;;;;;;;13.25;11.90;;;13.00;99.90;;;;;;5031543;28;20514;-81
2022/08/07 02:57:03;;;;;;;13.90;12.30;;;12.90;99.90;;;;;;5033539;28;20411;-82
2022/08/07 02:59:50;;;;;;;13.85;11.90;;;13.00;99.90;;;;;;5030374;28;20447;-81
2022/08/07 03:02:35;;;;;;;14.20;11.68;;;13.00;99.90;;;;;;5033777;28;20406;-80
2022/08/07 03:05:20;;;;;;;12.98;11.68;;;13.00;99.90;;;;;;5034068;28;20409;-80
2022/08/07 03:08:06;;;;;;;13.53;11.40;;;12.90;99.90;;;;;;5031868;28;20407;-81
2022/08/07 03:10:52;;;;;;;12.55;11.25;;;12.90;99.90;;;;;;5034774;28;20468;-81
2022/08/07 03:13:36;;;;;;;12.52;11.10;;;12.90;99.90;;;;;;5032026;28;20440;-81
2022/08/07 03:16:22;;;;;;;12.50;11.18;;;12.90;99.90;;;;;;5025815;28;20416;-82
2022/08/07 03:19:07;;;;;;;12.27;11.02;;;12.90;99.90;;;;;;5038722;28;20463;-81
2022/08/07 03:21:51;;;;;;;12.13;10.82;;;12.90;99.90;;;;;;5038473;28;20446;-81
2022/08/07 03:24:36;;;;;;;12.30;11.00;;;12.90;99.90;;;;;;5036555;28;20933;-80
2022/08/07 03:27:21;;;;;;;13.35;11.32;;;12.90;99.90;;;;;;5027237;28;20413;-82
2022/08/07 03:30:07;;;;;;;13.13;11.73;;;12.80;99.90;;;;;;5030123;28;20410;-81
2022/08/07 03:32:53;;;;;;;12.75;11.45;;;12.70;99.90;;;;;;5033068;28;20421;-81
2022/08/07 03:35:39;;;;;;;13.82;11.85;;;12.70;99.90;;;;;;5033993;28;20441;-81
2022/08/07 03:38:24;;;;;;;13.68;11.50;;;12.70;99.90;;;;;;5026024;28;20401;-79
2022/08/07 03:41:09;;;;;;;12.60;11.30;;;12.60;99.90;;;;;;5030167;28;20461;-80
2022/08/07 03:43:54;;;;;;;15.57;11.32;;;12.60;99.90;;;;;;5031764;28;20471;-79
2022/08/07 03:46:40;;;;;;;12.55;11.25;;;12.60;99.90;;;;;;5028069;28;20516;-79
2022/08/07 03:49:26;;;;;;;12.40;10.95;;;12.60;99.90;;;;;;5029867;28;20414;-79
2022/08/07 03:52:14;;;;;;;12.27;10.98;;;12.60;99.90;;;;;;5026398;28;20386;-81
2022/08/07 03:55:00;;;;;;;12.00;10.77;;;12.60;99.90;;;;;;5029764;28;20502;-80
2022/08/07 03:57:46;;;;;;;12.25;10.75;;;12.60;99.90;;;;;;5031516;28;20433;-80
2022/08/07 04:00:32;;;;;;;12.63;11.18;;;12.60;99.90;;;;;;5027429;28;20422;-81
2022/08/07 04:03:17;;;;;;;12.35;11.05;;;12.60;99.90;;;;;;5033267;28;20418;-80
2022/08/07 04:06:01;;;;;;;12.13;10.87;;;12.60;99.90;;;;;;5029634;28;20398;-82
2022/08/07 04:08:46;;;;;;;12.20;10.93;;;12.60;99.90;;;;;;5026066;28;20410;-80
2022/08/07 04:11:32;;;;;;;14.40;11.52;;;12.60;99.90;;;;;;5027768;28;20416;-81
2022/08/07 04:14:16;;;;;;;12.57;10.98;;;12.60;99.90;;;;;;5023329;28;20422;-80
2022/08/07 04:17:01;;;;;;;11.90;10.70;;;12.50;99.90;;;;;;5027999;28;20395;-80
2022/08/07 04:19:46;;;;;;;12.80;11.05;;;12.50;99.90;;;;;;5031455;28;20429;-80
2022/08/07 04:22:30;;;;;;;13.60;10.98;;;12.50;99.90;;;;;;5029325;28;20469;-81
2022/08/07 04:25:17;;;;;;;13.25;11.35;;;12.40;99.90;;;;;;5031134;28;20386;-81
2022/08/07 04:28:02;;;;;;;12.63;11.32;;;12.40;99.90;;;;;;5029089;28;20541;-81
2022/08/07 04:30:48;;;;;;;13.48;10.88;;;12.40;99.90;;;;;;5030562;28;20425;-81
2022/08/07 04:33:32;;;;;;;12.20;10.90;;;12.40;99.90;;;;;;5044863;28;20475;-81
2022/08/07 04:36:16;;;;;;;13.80;11.15;;;12.50;99.90;;;;;;5028925;28;20414;-81
2022/08/07 04:39:03;;;;;;;13.38;10.93;;;12.50;99.90;;;;;;5026685;28;20391;-80
2022/08/07 04:41:47;;;;;;;12.88;11.57;;;12.50;99.90;;;;;;5033997;28;20410;-81
2022/08/07 04:44:31;;;;;;;13.15;11.75;;;12.40;99.90;;;;;;5029951;28;20524;-81
2022/08/07 04:47:34;;;;;;;14.02;12.52;;;12.40;99.90;;;;;;5029803;28;20429;-80
2022/08/07 04:50:32;;;;;;;14.55;12.73;;;12.50;99.90;;;;;;5029782;28;20435;-81
2022/08/07 04:53:40;;;;;;;14.25;12.75;;;12.50;99.90;;;;;;5034234;28;20424;-80
2022/08/07 04:56:49;;;;;;;14.15;12.52;;;12.60;99.90;;;;;;5034277;28;20391;-79
2022/08/07 04:59:42;;;;;;;14.55;12.93;;;12.60;99.90;;;;;;5026323;28;20408;-79
2022/08/07 05:02:34;;;;;;;16.27;13.50;;;12.60;99.90;;;;;;5031719;28;20409;-79
2022/08/07 05:05:44;;;;;;;16.83;14.82;;;12.70;99.90;;;;;;5044076;28;20417;-80
2022/08/07 05:09:02;;;;;;;17.60;14.93;;;12.70;99.90;;;;;;5020950;28;20413;-79
2022/08/07 05:11:51;;;;;;;19.17;15.50;;;12.80;99.90;;;;;;5027822;28;20440;-79
2022/08/07 05:14:47;;;;;;;17.85;14.88;;;12.80;99.90;;;;;;5024982;28;20437;-79
2022/08/07 05:17:33;;;;;;;17.25;14.70;;;12.90;99.90;;;;;;5021814;28;20418;-80
2022/08/07 05:20:22;;;;;;;17.35;14.85;;;12.90;99.90;;;;;;5027466;28;20400;-79
2022/08/07 05:23:11;;;;;;;18.30;15.37;;;13.00;99.90;;;;;;5029085;28;20421;-78
2022/08/07 05:25:57;;;;;;;17.25;15.35;;;13.00;99.90;;;;;;5034990;28;20394;-80
2022/08/07 05:28:43;;;;;;;16.77;14.20;;;13.10;99.90;;;;;;5032089;28;20501;-80
2022/08/07 05:31:33;;;;;;;17.33;14.63;;;13.10;99.90;;;;;;5031830;28;20570;-79
2022/08/07 05:34:18;;;;;;;17.33;15.33;;;13.10;99.90;;;;;;5020775;28;20472;-80
2022/08/07 05:37:04;;;;;;;20.00;14.98;;;13.20;99.90;;;;;;5031419;28;20440;-78
2022/08/07 05:39:49;;;;;;;18.13;14.38;;;13.30;99.90;;;;;;5023542;28;20407;-78
2022/08/07 05:42:34;;;;;;;16.87;14.73;;;13.30;99.90;;;;;;5027238;28;20434;-78
2022/08/07 05:45:20;;;;;;;16.17;13.67;;;13.30;99.90;;;;;;5030971;28;20426;-78
2022/08/07 05:48:04;;;;;;;16.02;14.13;;;13.30;99.90;;;;;;5029879;28;20399;-78
2022/08/07 05:50:49;;;;;;;16.50;13.82;;;13.40;99.90;;;;;;5023817;28;20469;-78
2022/08/07 05:53:33;;;;;;;17.48;14.02;;;13.50;99.90;;;;;;5027321;28;20425;-78
2022/08/07 05:56:20;;;;;;;15.50;13.45;;;13.60;99.90;;;;;;5032937;28;20395;-79
2022/08/07 05:59:08;;;;;;;15.07;13.43;;;13.60;99.90;;;;;;5028961;28;20429;-78
2022/08/07 06:01:59;;;;;;;15.48;13.13;;;13.70;99.90;;;;;;5037077;28;20415;-80
2022/08/07 06:04:51;;;;;;;15.43;13.55;;;13.80;99.90;;;;;;5028147;28;20437;-79
2022/08/07 06:07:36;;;;;;;15.67;12.87;;;13.90;99.90;;;;;;5023252;28;20401;-81
2022/08/07 06:10:21;;;;;;;16.42;12.88;;;14.00;99.90;;;;;;5031581;28;20825;-80
2022/08/07 06:13:05;;;;;;;15.05;12.85;;;14.10;99.90;;;;;;5034695;28;20473;-81
2022/08/07 06:15:53;;;;;;;14.52;12.15;;;14.10;99.90;;;;;;5032919;28;20437;-81
2022/08/07 06:18:38;;;;;;;13.52;12.10;;;14.20;99.90;;;;;;5031778;28;20421;-81
2022/08/07 06:21:23;;;;;;;14.57;12.35;;;14.30;99.90;;;;;;5033883;28;20424;-81
2022/08/07 06:24:08;;;;;;;17.02;12.80;;;14.30;99.90;;;;;;5034656;28;20430;-81
2022/08/07 06:26:52;;;;;;;14.13;12.63;;;14.40;99.90;;;;;;5024620;28;20443;-80
2022/08/07 06:29:37;;;;;;;14.75;13.18;;;14.40;99.90;;;;;;5026212;28;20431;-82
2022/08/07 06:32:21;;;;;;;15.13;12.23;;;14.50;99.90;;;;;;5027237;28;20434;-82
2022/08/07 06:35:06;;;;;;;14.30;11.80;;;14.60;99.90;;;;;;5029001;28;20417;-77
2022/08/07 06:37:50;;;;;;;14.07;11.35;;;14.70;99.90;;;;;;5045250;28;20520;-78
2022/08/07 06:40:42;;;;;;;12.65;10.35;;;14.70;99.90;;;;;;5024414;28;20911;-78
2022/08/07 06:43:34;;;;;;;13.65;10.40;;;14.80;99.90;;;;;;5024333;28;20426;-78
2022/08/07 06:46:19;;;;;;;13.13;10.60;;;14.90;99.90;;;;;;5024704;28;20461;-78
2022/08/07 06:49:05;;;;;;;12.93;10.60;;;15.00;99.90;;;;;;5027287;28;20413;-78
2022/08/07 06:51:51;;;;;;;12.48;10.25;;;15.20;99.90;;;;;;5022782;28;20414;-78
2022/08/07 06:54:38;;;;;;;14.00;9.80;;;15.20;99.90;;;;;;5027749;28;20414;-78
2022/08/07 06:57:23;;;;;;;12.73;9.75;;;15.30;99.90;;;;;;5022470;28;21073;-78
2022/08/07 07:00:09;;;;;;;11.63;9.40;;;15.40;99.90;;;;;;5027714;28;20453;-78
2022/08/07 07:02:55;;;;;;;10.70;8.98;;;15.50;99.90;;;;;;5029591;28;20406;-79
2022/08/07 07:05:40;;;;;;;10.32;8.20;;;15.60;99.90;;;;;;5022039;28;20406;-79
2022/08/07 07:08:26;;;;;;;11.52;8.48;;;15.70;99.90;;;;;;5019986;28;20410;-79
2022/08/07 07:11:10;;;;;;;11.20;8.27;;;15.80;99.90;;;;;;5029145;28;20969;-79
2022/08/07 07:13:56;;;;;;;11.48;8.70;;;15.90;99.90;;;;;;5026319;28;20477;-78
2022/08/07 07:16:41;;;;;;;10.35;8.73;;;16.00;99.90;;;;;;5028493;28;20420;-79
2022/08/07 07:19:36;;;;;;;10.07;8.75;;;16.20;99.90;;;;;;5028093;28;20900;-79
2022/08/07 07:22:21;;;;;;;9.65;8.65;;;16.30;99.90;;;;;;5024289;28;20530;-78
2022/08/07 07:25:07;;;;;;;10.27;8.23;;;16.40;99.90;;;;;;5025336;28;20418;-79
2022/08/07 07:28:22;;;;;;;9.88;8.65;;;16.50;99.90;;;;;;5025513;28;20468;-78
2022/08/07 07:31:22;;;;;;;10.13;8.35;;;16.60;99.90;;;;;;5019180;28;20460;-79
2022/08/07 07:34:09;;;;;;;9.93;8.07;;;16.60;99.90;;;;;;5027692;28;20547;-78
2022/08/07 07:36:57;;;;;;;13.75;8.25;;;16.80;99.90;;;;;;5024902;28;20394;-81
2022/08/07 07:39:43;;;;;;;10.70;7.30;;;16.80;99.90;;;;;;5030496;28;20817;-83
2022/08/07 07:42:29;;;;;;;7.60;6.90;;;16.90;99.90;;;;;;5042202;28;20414;-80
2022/08/07 07:45:17;;;;;;;10.20;7.37;;;17.00;99.90;;;;;;5030245;28;20406;-80
2022/08/07 07:48:02;;;;;;;7.97;7.10;;;17.00;99.90;;;;;;5026445;28;20564;-81
2022/08/07 07:50:48;;;;;;;7.50;6.72;;;17.20;99.90;;;;;;5027125;28;20490;-81
2022/08/07 07:53:41;;;;;;;9.18;6.50;;;17.30;99.90;;;;;;5021784;28;20581;-78
2022/08/07 07:56:26;;;;;;;8.02;6.85;;;17.30;99.90;;;;;;5027059;28;20427;-77
2022/08/07 07:59:12;;;;;;;6.88;6.18;;;17.30;99.90;;;;;;5028139;28;20250;-86
2022/08/07 08:01:58;;;;;;;6.27;5.53;;;17.40;99.90;;;;;;5026808;28;20276;-81
2022/08/07 08:04:44;;;;;;;8.93;5.80;;;17.30;99.90;;;;;;5030131;28;20199;-81
2022/08/07 08:07:30;;;;;;;7.70;5.30;;;17.40;99.90;;;;;;5029588;28;20214;-81
2022/08/07 08:10:18;;;;;;;16.23;6.90;;;17.50;99.90;;;;;;5032741;28;20214;-82
2022/08/07 08:13:04;;;;;;;18.43;8.30;;;17.50;99.90;;;;;;5031359;28;20190;-82
2022/08/07 08:15:50;;;;;;;18.27;9.33;;;17.60;99.90;;;;;;5037295;28;20242;-82
2022/08/07 08:18:36;;;;;;;22.07;11.60;;;17.60;99.90;;;;;;5033379;28;20383;-82
2022/08/07 08:27:35;;;;;;;14.20;6.17;;;17.70;99.90;;;;;;5029738;28;20199;-82
2022/08/07 08:30:21;;;;;;;10.90;5.80;;;17.80;99.90;;;;;;5034780;28;20712;-80
2022/08/07 08:33:12;;;;;;;12.97;7.37;;;17.80;99.90;;;;;;5034405;28;20250;-80
2022/08/07 08:35:57;;;;;;;12.50;7.60;;;17.80;99.90;;;;;;5033770;28;20217;-80
2022/08/07 08:38:46;;;;;;;12.32;5.30;;;17.80;99.90;;;;;;5040032;28;20276;-80
2022/08/07 08:41:48;;;;;;;8.03;4.97;;;17.70;99.90;;;;;;5034015;28;20599;-81
2022/08/07 08:44:47;;;;;;;8.70;4.47;;;17.80;99.90;;;;;;5033204;28;20244;-81
2022/08/07 08:48:02;;;;;;;13.15;5.75;;;17.80;99.90;;;;;;5034736;28;20428;-82
2022/08/07 08:50:53;;;;;;;7.68;4.20;;;17.90;99.90;;;;;;5027865;28;20254;-81
2022/08/07 08:53:53;;;;;;;7.33;4.77;;;17.90;99.90;;;;;;5031040;28;20234;-81
2022/08/07 08:56:47;;;;;;;6.03;4.25;;;18.00;99.90;;;;;;5028696;28;20658;-81
2022/08/07 08:59:47;;;;;;;7.10;4.27;;;18.10;99.90;;;;;;5023132;28;20262;-81
2022/08/07 09:02:59;;;;;;;7.67;3.93;;;18.20;99.90;;;;;;5034215;28;20203;-81
2022/08/07 09:05:57;;;;;;;4.45;3.55;;;18.20;99.90;;;;;;5027499;28;20235;-81
2022/08/07 09:08:54;;;;;;;3.92;3.20;;;18.30;99.90;;;;;;5030085;28;20187;-81
2022/08/07 09:11:51;;;;;;;5.57;3.47;;;18.30;99.90;;;;;;5031744;28;20200;-81
2022/08/07 09:14:47;;;;;;;4.93;3.17;;;18.30;99.90;;;;;;5031619;28;20636;-82
2022/08/07 09:17:50;;;;;;;9.38;3.35;;;18.40;99.90;;;;;;5033750;28;20194;-81
2022/08/07 09:21:19;;;;;;;4.13;2.60;;;18.50;99.90;;;;;;5031665;28;20215;-81
2022/08/07 09:24:19;;;;;;;4.33;2.60;;;18.50;99.90;;;;;;5044840;28;20717;-80
2022/08/07 09:27:23;;;;;;;4.40;2.63;;;18.60;99.90;;;;;;5035863;28;20227;-81
2022/08/07 09:30:09;;;;;;;3.67;2.75;;;18.70;99.90;;;;;;5033989;28;20226;-81
2022/08/07 09:33:11;;;;;;;4.20;2.80;;;18.90;99.90;;;;;;5032250;28;20203;-81
2022/08/07 09:36:06;;;;;;;4.18;2.50;;;19.00;99.90;;;;;;5031359;28;20199;-81
2022/08/07 09:39:01;;;;;;;4.68;2.58;;;19.10;99.90;;;;;;5043725;28;20288;-81
2022/08/07 09:41:50;;;;;;;4.78;3.47;;;19.20;99.90;;;;;;5032861;28;20390;-82
2022/08/07 09:45:09;;;;;;;5.05;3.10;;;19.30;99.90;;;;;;5032424;28;20437;-82
2022/08/07 09:48:10;;;;;;;5.05;2.90;;;19.30;99.90;;;;;;5028118;28;20448;-82
2022/08/07 09:51:16;;;;;;;4.75;3.30;;;19.50;99.90;;;;;;5031674;28;20424;-82
2022/08/07 09:54:02;;;;;;;3.20;2.90;;;19.60;99.90;;;;;;5031676;28;20286;-82
2022/08/07 09:57:10;;;;;;;2.70;2.50;;;19.60;99.90;;;;;;5030629;28;20192;-82
2022/08/07 10:00:02;;;;;;;4.35;2.45;;;19.70;99.90;;;;;;5026417;28;20291;-82
2022/08/07 10:03:04;;;;;;;2.40;2.20;;;19.70;99.90;;;;;;5021351;28;20268;-82
2022/08/07 10:06:26;;;;;;;4.25;2.42;;;19.70;99.90;;;;;;5033516;28;20226;-82
2022/08/07 10:09:23;;;;;;;3.47;2.47;;;19.70;99.90;;;;;;5032037;28;20214;-82
2022/08/07 10:12:25;;;;;;;4.22;2.50;;;19.80;99.90;;;;;;5032479;28;20191;-82
2022/08/07 10:15:34;;;;;;;3.65;2.55;;;19.90;99.90;;;;;;5033104;28;20238;-82
2022/08/07 10:18:27;;;;;;;3.58;2.72;;;19.90;99.90;;;;;;5030560;28;20211;-82
2022/08/07 10:21:53;;;;;;;2.83;2.17;;;20.00;99.90;;;;;;5044985;28;20297;-82
2022/08/07 10:25:18;;;;;;;2.55;2.05;;;19.90;99.90;;;;;;5022086;28;20199;-82
2022/08/07 10:28:22;;;;;;;4.40;2.17;;;19.90;99.90;;;;;;5044980;28;20183;-82
2022/08/07 10:31:27;;;;;;;3.28;2.15;;;20.00;99.90;;;;;;5030702;28;20262;-82
2022/08/07 10:34:32;;;;;;;4.35;2.00;;;20.00;99.90;;;;;;5028885;28;20262;-82
2022/08/07 10:37:35;;;;;;;2.35;2.13;;;20.10;99.90;;;;;;5024342;28;20263;-82
2022/08/07 10:40:24;;;;;;;3.13;2.40;;;20.20;99.90;;;;;;5029203;28;20278;-80
2022/08/07 10:43:20;;;;;;;2.55;1.90;;;20.20;99.90;;;;;;5031355;28;20206;-82
2022/08/07 10:46:26;;;;;;;2.70;2.20;;;20.20;99.90;;;;;;5045656;28;20207;-80
2022/08/07 10:49:27;;;;;;;2.38;2.13;;;20.30;99.90;;;;;;5033927;28;20231;-79
2022/08/07 10:52:18;;;;;;;2.65;2.30;;;20.30;99.90;;;;;;5029421;28;20242;-79
2022/08/07 10:55:17;;;;;;;2.40;2.20;;;20.30;99.90;;;;;;5031212;28;20239;-79
2022/08/07 10:58:55;;;;;;;2.03;1.90;;;20.40;99.90;;;;;;5021947;28;20202;-82
2022/08/07 11:02:21;;;;;;;3.70;1.75;;;20.40;99.90;;;;;;4974226;28;20240;-80
2022/08/07 11:05:29;;;;;;;3.08;1.70;;;20.70;99.90;;;;;;5001212;28;20233;-80
2022/08/07 11:08:52;;;;;;;5.35;2.13;;;20.80;99.90;;;;;;5033282;28;20211;-78
2022/08/07 11:11:52;;;;;;;3.92;2.22;;;20.90;99.90;;;;;;5029605;28;20186;-78
2022/08/07 11:14:41;;;;;;;3.47;2.03;;;20.90;99.90;;;;;;5029708;28;20204;-78
2022/08/07 11:17:33;;;;;;;3.75;2.30;;;21.00;99.90;;;;;;5027315;28;20242;-78
2022/08/07 11:20:22;;;;;;;2.70;2.42;;;21.00;99.90;;;;;;5030295;28;20247;-78
2022/08/07 11:23:18;;;;;;;4.13;2.40;;;21.00;99.90;;;;;;5030488;28;20211;-78
2022/08/07 11:26:40;;;;;;;3.17;2.25;;;21.00;99.90;;;;;;5028898;28;20216;-78
2022/08/07 11:29:35;;;;;;;2.47;1.90;;;21.10;99.90;;;;;;5029382;28;20253;-79
2022/08/07 11:32:29;;;;;;;2.53;1.83;;;21.10;99.90;;;;;;5025057;28;20224;-80
2022/08/07 11:35:45;;;;;;;2.15;1.95;;;21.10;99.90;;;;;;5014815;28;20220;-78
2022/08/07 11:38:48;;;;;;;3.45;1.60;;;21.10;99.90;;;;;;5035961;28;20179;-78
2022/08/07 11:41:56;;;;;;;3.28;1.65;;;21.10;99.90;;;;;;5031070;28;20548;-79
2022/08/07 11:45:16;;;;;;;3.30;2.05;;;21.10;99.90;;;;;;5028198;28;20220;-79
2022/08/07 11:48:22;;;;;;;2.90;1.58;;;21.10;99.90;;;;;;5018842;28;20621;-80
2022/08/07 11:51:31;;;;;;;2.03;1.63;;;21.20;99.90;;;;;;5028814;28;20218;-79
2022/08/07 11:54:45;;;;;;;2.60;1.80;;;21.20;99.90;;;;;;5027237;28;20226;-79
2022/08/07 11:57:41;;;;;;;2.17;1.48;;;21.30;99.90;;;;;;5030564;28;20301;-78
2022/08/07 12:00:47;;;;;;;1.65;1.55;;;21.50;99.90;;;;;;5023780;28;20219;-78
2022/08/07 12:03:34;;;;;;;2.40;1.50;;;21.50;99.90;;;;;;5027272;28;20210;-78
2022/08/07 12:06:33;;;;;;;2.88;1.90;;;21.50;99.90;;;;;;5041900;28;20186;-78
2022/08/07 12:09:27;;;;;;;2.08;1.40;;;21.60;99.90;;;;;;5026745;28;20219;-78
2022/08/07 12:12:17;;;;;;;1.30;1.20;;;21.70;99.90;;;;;;5025642;28;20242;-77
2022/08/07 12:15:22;;;;;;;1.48;1.35;;;21.80;99.90;;;;;;5023671;28;20277;-77
2022/08/07 12:18:21;;;;;;;2.38;1.35;;;21.90;99.90;;;;;;5022195;28;20278;-77
2022/08/07 12:21:29;;;;;;;1.67;1.30;;;22.00;99.90;;;;;;5029983;28;20262;-77
2022/08/07 12:24:24;;;;;;;3.20;1.35;;;21.90;99.90;;;;;;5015121;28;20693;-81
2022/08/07 12:27:12;;;;;;;1.30;1.20;;;22.00;99.90;;;;;;5032318;28;20211;-81
2022/08/07 12:30:03;;;;;;;1.60;1.42;;;22.10;99.90;;;;;;5030584;28;20258;-80
2022/08/07 12:32:53;;;;;;;1.25;1.15;;;22.20;99.90;;;;;;5031697;28;20210;-80
2022/08/07 12:35:40;;;;;;;2.88;1.55;;;22.20;99.90;;;;;;5034335;28;20195;-80
2022/08/07 12:38:26;;;;;;;1.70;1.27;;;22.10;99.90;;;;;;5030876;28;20203;-80
2022/08/07 12:41:12;;;;;;;1.90;1.50;;;22.10;99.90;;;;;;5034908;28;20230;-80
2022/08/07 12:43:58;;;;;;;1.60;1.45;;;22.10;99.90;;;;;;5029278;28;20223;-80
2022/08/07 12:47:08;;;;;;;1.50;1.40;;;22.20;99.90;;;;;;5032003;28;20234;-80
2022/08/07 12:50:14;;;;;;;1.67;1.30;;;22.20;99.90;;;;;;5029370;28;20227;-80
2022/08/07 12:53:16;;;;;;;1.95;1.40;;;22.30;99.90;;;;;;5023973;28;20260;-81
2022/08/07 12:56:17;;;;;;;2.13;1.35;;;22.30;99.90;;;;;;5039781;28;20277;-80
2022/08/07 12:59:04;;;;;;;2.03;1.50;;;22.40;99.90;;;;;;5037917;28;20242;-80
2022/08/07 13:01:54;;;;;;;3.30;1.33;;;22.40;99.90;;;;;;5034421;28;20223;-80
2022/08/07 13:05:04;;;;;;;1.50;1.40;;;22.40;99.90;;;;;;5046695;28;20182;-80
2022/08/07 13:08:11;;;;;;;1.60;1.30;;;22.50;99.90;;;;;;5029688;28;20188;-80
2022/08/07 13:11:24;;;;;;;1.70;1.30;;;22.60;99.90;;;;;;5034567;28;20219;-80
2022/08/07 13:14:42;;;;;;;2.30;1.20;;;22.50;99.90;;;;;;5033685;28;20230;-80
2022/08/07 13:17:54;;;;;;;2.08;1.30;;;22.60;99.90;;;;;;5035843;28;20196;-80
2022/08/07 13:20:49;;;;;;;2.70;1.33;;;22.60;99.90;;;;;;5039067;28;20243;-80
2022/08/07 13:23:50;;;;;;;2.65;1.48;;;22.50;99.90;;;;;;5038543;28;20195;-80
2022/08/07 13:26:42;;;;;;;1.60;1.48;;;22.50;99.90;;;;;;5035710;28;20344;-80
2022/08/07 13:29:37;;;;;;;2.47;1.40;;;22.60;99.90;;;;;;5034562;28;21033;-80
2022/08/07 13:32:21;;;;;;;2.60;1.60;;;22.70;99.90;;;;;;5035100;28;20191;-79
2022/08/07 13:35:12;;;;;;;1.70;1.50;;;22.70;99.90;;;;;;5027882;28;20284;-81
2022/08/07 13:38:09;;;;;;;2.53;1.60;;;22.60;99.90;;;;;;5031204;28;20697;-80
2022/08/07 13:41:16;;;;;;;3.88;1.70;;;22.70;99.90;;;;;;5033952;28;20283;-80
2022/08/07 13:44:05;;;;;;;1.92;1.38;;;22.70;99.90;;;;;;5036959;28;20246;-81
2022/08/07 13:46:53;;;;;;;3.42;1.70;;;22.70;99.90;;;;;;5033097;28;20200;-80
2022/08/07 13:49:43;;;;;;;1.65;1.52;;;22.70;99.90;;;;;;5033346;28;20754;-81
2022/08/07 13:52:30;;;;;;;1.60;1.50;;;22.70;99.90;;;;;;5029286;28;20275;-80
2022/08/07 13:55:18;;;;;;;2.58;1.52;;;22.70;99.90;;;;;;5047941;28;20303;-81
2022/08/07 14:01:13;;;;;;;;;;;22.80;99.90;;;;;;5033935;28;20056;-81
2022/08/07 14:04:10;;;;;;;2.37;1.77;;;22.90;99.90;;;;;;5031744;28;20465;-79
2022/08/07 14:06:54;;;;;;;1.80;1.70;;;22.90;99.90;;;;;;5032079;28;20519;-80
2022/08/07 14:09:40;;;;;;;1.70;1.60;;;22.90;99.90;;;;;;5031603;28;20215;-80
2022/08/07 14:12:43;;;;;;;2.25;1.58;;;22.90;99.90;;;;;;5038508;28;20192;-80
2022/08/07 14:15:34;;;;;;;1.95;1.70;;;22.90;99.90;;;;;;5031876;28;20247;-80
2022/08/07 14:18:26;;;;;;;2.92;1.73;;;23.00;99.90;;;;;;5034418;28;20203;-81
2022/08/07 14:21:23;;;;;;;1.80;1.70;;;23.10;99.90;;;;;;5032489;28;20246;-81
2022/08/07 14:24:18;;;;;;;3.20;1.67;;;23.20;99.90;;;;;;5037011;28;20239;-82
2022/08/07 14:27:06;;;;;;;2.47;1.50;;;23.20;99.90;;;;;;5035915;28;20254;-80
2022/08/07 14:29:55;;;;;;;2.00;1.75;;;23.20;99.90;;;;;;5030498;28;20247;-81
2022/08/07 14:32:46;;;;;;;2.50;1.60;;;23.10;99.90;;;;;;5030982;28;20195;-80
2022/08/07 14:35:34;;;;;;;1.80;1.60;;;23.20;99.90;;;;;;5027606;28;20702;-81
2022/08/07 14:38:23;;;;;;;3.63;1.50;;;23.20;99.90;;;;;;5019771;28;20187;-81
2022/08/07 14:41:11;;;;;;;4.40;1.75;;;23.30;99.90;;;;;;5028856;28;20207;-81
2022/08/07 14:43:55;;;;;;;1.92;1.73;;;23.30;99.90;;;;;;5029308;28;20662;-81
2022/08/07 14:46:41;;;;;;;2.22;1.70;;;23.30;99.90;;;;;;5034448;28;20187;-81
2022/08/07 14:49:32;;;;;;;2.05;1.77;;;23.30;99.90;;;;;;5034414;28;20295;-81
2022/08/07 14:52:19;;;;;;;2.15;1.60;;;23.30;99.90;;;;;;5032584;28;20241;-81
2022/08/07 14:55:05;;;;;;;2.60;1.83;;;23.20;99.90;;;;;;5033944;28;20218;-81